Time;durP1;ratioP1;P1;durP2;ratioP2;P2;SDS_P1;SDS_P2;PMS_P1;PMS_P2;Temp;Humidity;BMP_temperature;BMP_pressure;BME280_temperature;BME280_humidity;BME280_pressure;Samples;Min_cycle;Max_cycle;Signal;HPM_P1;HPM_P2
2023/05/11 00:02:00;;;;;;;29.08;16.60;;;16.10;99.90;;;;;;4992232;28;20360;-71
2023/05/11 00:04:26;;;;;;;37.63;18.65;;;16.20;99.90;;;;;;4994085;28;20034;-71
2023/05/11 00:06:53;;;;;;;31.08;17.77;;;16.20;99.90;;;;;;4994102;28;20045;-70
2023/05/11 00:09:19;;;;;;;27.10;16.50;;;16.30;99.90;;;;;;4994159;28;20071;-71
2023/05/11 00:11:45;;;;;;;32.22;17.23;;;16.30;99.90;;;;;;4993804;28;20023;-71
2023/05/11 00:14:11;;;;;;;24.17;14.00;;;16.30;99.90;;;;;;4994401;28;20564;-71
2023/05/11 00:16:36;;;;;;;27.27;14.50;;;16.20;99.90;;;;;;4993933;28;20125;-71
2023/05/11 00:19:02;;;;;;;26.75;15.75;;;16.30;99.90;;;;;;4993950;28;20349;-69
2023/05/11 00:21:28;;;;;;;25.65;15.10;;;16.20;99.90;;;;;;4993758;28;20039;-71
2023/05/11 00:23:53;;;;;;;22.05;13.00;;;16.20;99.90;;;;;;4993592;28;20431;-70
2023/05/11 00:26:20;;;;;;;24.60;13.93;;;16.30;99.90;;;;;;4976880;28;20041;-70
2023/05/11 00:28:46;;;;;;;20.02;13.15;;;16.30;99.90;;;;;;4994047;28;20030;-71
2023/05/11 00:31:11;;;;;;;20.73;12.85;;;16.20;99.90;;;;;;4992737;28;20357;-70
2023/05/11 00:33:37;;;;;;;22.45;13.07;;;16.30;99.90;;;;;;4976410;28;20130;-71
2023/05/11 00:36:03;;;;;;;23.90;13.05;;;16.30;99.90;;;;;;4993990;28;20062;-70
2023/05/11 00:38:29;;;;;;;23.65;13.88;;;16.30;99.90;;;;;;4993625;28;20034;-71
2023/05/11 00:40:55;;;;;;;25.30;12.88;;;16.30;99.90;;;;;;4993888;28;20023;-72
2023/05/11 00:43:21;;;;;;;21.05;13.45;;;16.30;99.90;;;;;;4992558;28;20509;-71
2023/05/11 00:45:48;;;;;;;21.45;13.73;;;16.20;99.90;;;;;;4992282;28;20355;-70
2023/05/11 00:48:15;;;;;;;22.33;12.63;;;16.20;99.90;;;;;;4993662;28;20364;-70
2023/05/11 00:50:41;;;;;;;19.48;12.25;;;16.20;99.90;;;;;;4993203;28;20049;-70
2023/05/11 00:53:07;;;;;;;23.80;13.32;;;16.20;99.90;;;;;;4993847;28;20468;-71
2023/05/11 00:55:33;;;;;;;23.55;12.73;;;16.20;99.90;;;;;;4993574;28;20050;-70
2023/05/11 00:57:59;;;;;;;19.23;11.77;;;16.20;99.90;;;;;;4993409;28;20082;-71
2023/05/11 01:00:25;;;;;;;18.45;11.73;;;16.20;99.90;;;;;;4993129;28;20035;-70
2023/05/11 01:02:51;;;;;;;21.83;12.38;;;16.10;99.90;;;;;;4993251;28;20034;-69
2023/05/11 01:05:17;;;;;;;16.60;11.02;;;16.10;99.90;;;;;;4993639;28;20091;-70
2023/05/11 01:07:58;;;;;;;16.88;11.13;;;16.20;99.90;;;;;;4993104;28;20042;-71
2023/05/11 01:10:47;;;;;;;16.90;11.50;;;16.20;99.90;;;;;;4993238;28;20027;-70
2023/05/11 01:13:32;;;;;;;20.75;11.70;;;16.20;99.90;;;;;;4992130;28;20034;-71
2023/05/11 01:16:06;;;;;;;14.52;10.27;;;16.20;99.90;;;;;;4992662;28;20031;-70
2023/05/11 01:18:38;;;;;;;15.43;9.57;;;16.10;99.90;;;;;;4992665;28;20027;-71
2023/05/11 01:21:05;;;;;;;13.30;9.85;;;16.10;99.90;;;;;;4992719;28;20121;-71
2023/05/11 01:23:43;;;;;;;15.47;8.97;;;16.10;99.90;;;;;;4992566;28;20105;-72
2023/05/11 01:26:17;;;;;;;16.58;10.38;;;16.10;99.90;;;;;;4993583;28;20057;-70
2023/05/11 01:29:12;;;;;;;17.10;9.85;;;16.10;99.90;;;;;;4992597;28;20392;-69
2023/05/11 01:31:41;;;;;;;13.07;8.98;;;16.10;99.90;;;;;;4972131;28;20581;-70
2023/05/11 01:34:16;;;;;;;12.23;8.85;;;16.10;99.90;;;;;;4973067;28;20035;-70
2023/05/11 01:36:53;;;;;;;15.13;8.95;;;16.10;99.90;;;;;;4988336;28;20122;-70
2023/05/11 01:39:23;;;;;;;15.32;9.30;;;16.00;99.90;;;;;;4992567;28;20389;-70
2023/05/11 01:41:54;;;;;;;15.52;9.82;;;15.90;99.90;;;;;;4991421;28;20101;-71
2023/05/11 01:44:22;;;;;;;12.95;8.88;;;15.90;99.90;;;;;;4991811;28;20105;-71
2023/05/11 01:46:49;;;;;;;15.05;8.88;;;15.90;99.90;;;;;;4992412;28;20379;-72
2023/05/11 01:49:16;;;;;;;12.30;8.30;;;16.00;99.90;;;;;;4992147;28;20138;-72
2023/05/11 01:51:45;;;;;;;14.90;8.73;;;16.00;99.90;;;;;;4991351;28;20133;-72
2023/05/11 01:54:11;;;;;;;12.98;7.93;;;16.00;99.90;;;;;;4992280;28;20026;-71
2023/05/11 01:56:40;;;;;;;8.93;6.75;;;16.00;99.90;;;;;;4991131;28;20058;-72
2023/05/11 01:59:06;;;;;;;9.25;6.85;;;16.00;99.90;;;;;;4992555;28;20105;-72
2023/05/11 02:01:35;;;;;;;9.98;7.03;;;16.10;99.90;;;;;;4992072;28;20031;-70
2023/05/11 02:04:03;;;;;;;11.93;7.53;;;16.00;99.90;;;;;;4992196;28;20238;-71
2023/05/11 02:06:31;;;;;;;11.10;7.15;;;16.00;99.90;;;;;;4992251;28;20034;-71
2023/05/11 02:08:59;;;;;;;9.02;6.80;;;16.00;99.90;;;;;;4991987;28;20030;-71
2023/05/11 02:11:26;;;;;;;12.18;7.50;;;16.00;99.90;;;;;;4992450;28;20125;-72
2023/05/11 02:13:55;;;;;;;9.35;6.25;;;15.90;99.90;;;;;;4992006;28;20037;-72
2023/05/11 02:16:20;;;;;;;;;;;15.90;99.90;;;;;;4992579;28;20419;-72
2023/05/11 02:18:47;;;;;;;8.57;5.80;;;15.90;99.90;;;;;;5006880;28;19918;-71
2023/05/11 02:21:15;;;;;;;8.43;6.10;;;15.90;99.90;;;;;;4991886;28;20380;-71
2023/05/11 02:23:42;;;;;;;10.55;6.45;;;15.80;99.90;;;;;;4991622;28;20030;-69
2023/05/11 02:26:09;;;;;;;10.10;6.05;;;15.80;99.90;;;;;;4990089;28;20117;-70
2023/05/11 02:28:35;;;;;;;8.52;6.10;;;15.90;99.90;;;;;;4991790;28;20031;-70
2023/05/11 02:31:08;;;;;;;9.88;6.47;;;15.80;99.90;;;;;;5005677;28;20104;-71
2023/05/11 02:33:44;;;;;;;11.02;6.50;;;15.90;99.90;;;;;;5010946;28;20034;-71
2023/05/11 02:36:16;;;;;;;7.80;6.03;;;15.80;99.90;;;;;;5011304;28;20072;-70
2023/05/11 02:38:44;;;;;;;9.45;6.15;;;15.80;99.90;;;;;;4993430;28;20080;-70
2023/05/11 02:41:14;;;;;;;8.65;5.50;;;15.80;99.90;;;;;;5011462;28;20021;-70
2023/05/11 02:43:46;;;;;;;9.55;6.22;;;15.80;99.90;;;;;;5011060;28;20368;-71
2023/05/11 02:46:16;;;;;;;12.25;6.22;;;15.70;99.90;;;;;;5010803;28;20026;-71
2023/05/11 02:48:50;;;;;;;7.22;5.18;;;15.70;99.90;;;;;;4993420;28;20030;-70
2023/05/11 02:51:19;;;;;;;8.00;5.82;;;15.70;99.90;;;;;;5010816;28;20037;-70
2023/05/11 02:53:47;;;;;;;7.78;5.35;;;15.80;99.90;;;;;;5011071;28;20049;-72
2023/05/11 02:56:13;;;;;;;7.85;5.47;;;15.80;99.90;;;;;;5011420;28;20040;-70
2023/05/11 02:58:39;;;;;;;8.27;5.55;;;15.80;99.90;;;;;;5011099;28;20041;-71
2023/05/11 03:01:09;;;;;;;15.93;5.38;;;15.80;99.90;;;;;;5011044;28;20037;-71
2023/05/11 03:03:34;;;;;;;11.05;5.60;;;15.80;99.90;;;;;;5011180;28;20038;-72
2023/05/11 03:06:00;;;;;;;8.18;5.20;;;15.70;99.90;;;;;;5010911;28;20121;-71
2023/05/11 03:08:26;;;;;;;7.97;5.78;;;15.80;99.90;;;;;;4994276;28;20376;-71
2023/05/11 03:10:53;;;;;;;6.68;5.18;;;15.70;99.90;;;;;;5011468;28;20088;-70
2023/05/11 03:13:21;;;;;;;6.78;5.18;;;15.70;99.90;;;;;;5011334;28;20026;-71
2023/05/11 03:15:47;;;;;;;8.38;5.65;;;15.80;99.90;;;;;;5011041;28;20547;-71
2023/05/11 03:18:14;;;;;;;6.47;5.03;;;15.70;99.90;;;;;;5010855;28;20460;-70
2023/05/11 03:20:42;;;;;;;11.93;5.15;;;15.70;99.90;;;;;;4993618;28;20026;-70
2023/05/11 03:23:09;;;;;;;7.40;5.63;;;15.70;99.90;;;;;;5011669;28;20092;-71
2023/05/11 03:25:35;;;;;;;8.67;5.87;;;15.70;99.90;;;;;;5011425;28;20030;-70
2023/05/11 03:28:03;;;;;;;7.82;5.45;;;15.70;99.90;;;;;;5011132;28;20030;-71
2023/05/11 03:30:29;;;;;;;7.07;5.15;;;15.70;99.90;;;;;;5012069;28;20292;-71
2023/05/11 03:32:55;;;;;;;7.45;5.30;;;15.70;99.90;;;;;;5012435;28;20033;-71
2023/05/11 03:35:26;;;;;;;9.75;5.78;;;15.70;99.90;;;;;;4994367;28;20392;-71
2023/05/11 03:37:53;;;;;;;8.68;5.32;;;15.70;99.90;;;;;;5013186;28;20037;-71
2023/05/11 03:40:22;;;;;;;8.30;5.88;;;15.70;99.90;;;;;;5014166;28;20049;-71
2023/05/11 03:42:50;;;;;;;10.50;5.75;;;15.70;99.90;;;;;;5014379;28;20084;-71
2023/05/11 03:45:18;;;;;;;10.35;6.10;;;15.70;99.90;;;;;;5015160;28;20026;-72
2023/05/11 03:47:46;;;;;;;10.27;5.65;;;15.70;99.90;;;;;;5016944;28;20456;-74
2023/05/11 03:50:13;;;;;;;6.55;4.90;;;15.70;99.90;;;;;;5015788;28;20101;-71
2023/05/11 03:52:40;;;;;;;7.32;5.63;;;15.70;99.90;;;;;;5015952;28;20034;-72
2023/05/11 03:55:07;;;;;;;6.63;5.43;;;15.70;99.90;;;;;;5000688;28;20180;-72
2023/05/11 03:57:36;;;;;;;8.52;5.68;;;15.70;99.90;;;;;;5018299;28;20065;-71
2023/05/11 04:00:02;;;;;;;9.13;6.20;;;15.70;99.90;;;;;;5017894;28;20038;-71
2023/05/11 04:02:27;;;;;;;11.55;6.10;;;15.60;99.90;;;;;;5018330;28;20033;-71
2023/05/11 04:04:53;;;;;;;6.65;5.43;;;15.70;99.90;;;;;;5017548;28;20041;-72
2023/05/11 04:07:19;;;;;;;8.95;6.50;;;15.60;99.90;;;;;;5015993;28;20096;-72
2023/05/11 04:09:45;;;;;;;11.07;6.20;;;15.60;99.90;;;;;;5017872;28;20037;-70
2023/05/11 04:12:10;;;;;;;8.77;6.13;;;15.60;99.90;;;;;;5019125;28;20026;-72
2023/05/11 04:14:36;;;;;;;7.65;5.75;;;15.60;99.90;;;;;;5017098;28;20352;-72
2023/05/11 04:17:02;;;;;;;10.05;6.88;;;15.70;99.90;;;;;;5016049;28;20033;-70
2023/05/11 04:19:27;;;;;;;9.02;6.07;;;15.70;99.90;;;;;;5021655;28;20454;-71
2023/05/11 04:21:53;;;;;;;7.35;5.55;;;15.70;99.90;;;;;;5021583;28;20490;-72
2023/05/11 04:24:19;;;;;;;10.60;7.07;;;15.70;99.90;;;;;;5020996;28;20096;-72
2023/05/11 04:26:44;;;;;;;8.73;6.15;;;15.70;99.90;;;;;;5019692;28;20334;-71
2023/05/11 04:29:10;;;;;;;8.60;6.22;;;15.70;99.90;;;;;;5014337;28;20101;-72
2023/05/11 04:31:36;;;;;;;9.25;6.07;;;15.70;99.90;;;;;;5018569;28;20368;-71
2023/05/11 04:34:01;;;;;;;8.00;5.97;;;15.70;99.90;;;;;;5020524;28;20038;-71
2023/05/11 04:36:27;;;;;;;11.90;8.02;;;15.70;99.90;;;;;;5018473;28;20518;-72
2023/05/11 04:38:53;;;;;;;10.75;7.18;;;15.70;99.90;;;;;;5018744;28;20360;-70
2023/05/11 04:41:18;;;;;;;10.45;7.78;;;15.70;99.90;;;;;;5017154;28;20132;-72
2023/05/11 04:43:44;;;;;;;13.32;7.97;;;15.70;99.90;;;;;;4998903;28;20034;-72
2023/05/11 04:46:10;;;;;;;11.25;7.70;;;15.60;99.90;;;;;;5013403;28;20110;-72
2023/05/11 04:48:36;;;;;;;9.98;7.18;;;15.60;99.90;;;;;;4994694;28;20030;-71
2023/05/11 04:51:05;;;;;;;10.40;7.43;;;15.70;99.90;;;;;;5013181;28;20088;-71
2023/05/11 04:53:30;;;;;;;11.25;7.80;;;15.70;99.90;;;;;;5012729;28;20645;-71
2023/05/11 04:55:56;;;;;;;11.15;7.07;;;15.70;99.90;;;;;;5013329;28;20030;-70
2023/05/11 04:58:22;;;;;;;10.38;7.07;;;15.70;99.90;;;;;;5012747;28;20117;-71
2023/05/11 05:00:47;;;;;;;10.15;7.30;;;15.70;99.90;;;;;;5012868;28;20415;-71
2023/05/11 05:03:13;;;;;;;10.95;7.90;;;15.80;99.90;;;;;;5012519;28;20034;-71
2023/05/11 05:05:39;;;;;;;11.23;8.07;;;15.70;99.90;;;;;;4995216;28;20029;-71
2023/05/11 05:08:06;;;;;;;10.95;8.32;;;15.80;99.90;;;;;;4995724;28;20364;-71
2023/05/11 05:10:32;;;;;;;11.23;8.40;;;15.80;99.90;;;;;;5012780;28;20029;-71
2023/05/11 05:12:58;;;;;;;11.93;8.65;;;15.70;99.90;;;;;;4995684;28;20418;-72
2023/05/11 05:15:23;;;;;;;11.27;7.88;;;15.80;99.90;;;;;;5012855;28;20116;-71
2023/05/11 05:17:49;;;;;;;10.55;8.20;;;15.70;99.90;;;;;;5012893;28;20026;-71
2023/05/11 05:20:15;;;;;;;13.02;9.05;;;15.80;99.90;;;;;;4995837;28;20153;-70
2023/05/11 05:22:41;;;;;;;12.20;9.02;;;15.90;99.90;;;;;;5013040;28;20034;-70
2023/05/11 05:25:07;;;;;;;14.82;9.15;;;15.80;99.90;;;;;;5012959;28;20516;-71
2023/05/11 05:27:33;;;;;;;18.90;9.77;;;15.80;99.90;;;;;;5013381;28;20049;-71
2023/05/11 05:29:58;;;;;;;14.80;9.55;;;15.80;99.90;;;;;;5013535;28;20038;-71
2023/05/11 05:32:24;;;;;;;14.07;9.80;;;15.90;99.90;;;;;;4998022;28;20448;-72
2023/05/11 05:34:50;;;;;;;16.98;11.15;;;15.90;99.90;;;;;;5020910;28;20037;-71
2023/05/11 05:37:16;;;;;;;15.75;11.13;;;15.90;99.90;;;;;;5027137;28;20034;-71
2023/05/11 05:39:41;;;;;;;18.33;13.27;;;16.00;99.90;;;;;;5028357;28;20030;-72
2023/05/11 05:42:07;;;;;;;17.73;11.95;;;16.00;99.90;;;;;;5026483;28;20479;-72
2023/05/11 05:44:33;;;;;;;17.55;12.43;;;16.00;99.90;;;;;;5024729;28;20057;-69
2023/05/11 05:46:58;;;;;;;19.05;13.25;;;16.10;99.90;;;;;;5022729;28;20014;-71
2023/05/11 05:49:24;;;;;;;17.48;12.02;;;16.10;99.90;;;;;;5021041;28;20063;-70
2023/05/11 05:51:50;;;;;;;18.38;12.57;;;16.10;99.90;;;;;;5017406;28;20030;-71
2023/05/11 05:54:17;;;;;;;17.63;12.40;;;16.10;99.90;;;;;;4998787;28;20376;-72
2023/05/11 05:56:43;;;;;;;21.30;13.15;;;16.10;99.90;;;;;;5018346;28;20033;-74
2023/05/11 05:59:09;;;;;;;18.27;13.45;;;16.10;99.90;;;;;;5017318;28;20025;-72
2023/05/11 06:01:35;;;;;;;19.45;14.13;;;16.10;99.90;;;;;;5015500;28;20037;-71
2023/05/11 06:04:01;;;;;;;19.83;13.95;;;16.20;99.90;;;;;;5014873;28;20379;-73
2023/05/11 06:06:27;;;;;;;19.55;13.85;;;16.20;99.90;;;;;;5013781;28;20040;-72
2023/05/11 06:08:52;;;;;;;22.58;14.40;;;16.20;99.90;;;;;;5031234;28;20073;-71
2023/05/11 06:11:18;;;;;;;18.25;13.75;;;16.30;99.90;;;;;;5031792;28;20025;-72
2023/05/11 06:13:44;;;;;;;21.30;14.25;;;16.30;99.90;;;;;;5033451;28;20030;-72
2023/05/11 06:16:09;;;;;;;19.02;13.85;;;16.30;99.90;;;;;;5030903;28;20459;-72
2023/05/11 06:18:35;;;;;;;21.52;14.68;;;16.30;99.90;;;;;;5031290;28;20055;-72
2023/05/11 06:21:01;;;;;;;23.27;15.27;;;16.30;99.90;;;;;;5013447;28;20132;-70
2023/05/11 06:23:26;;;;;;;21.88;15.13;;;16.30;99.90;;;;;;5031180;28;20430;-71
2023/05/11 06:25:52;;;;;;;20.35;14.35;;;16.20;99.90;;;;;;5030838;28;20094;-72
2023/05/11 06:28:18;;;;;;;25.15;15.02;;;16.30;99.90;;;;;;5031048;28;20040;-75
2023/05/11 06:30:43;;;;;;;18.95;13.85;;;16.30;99.90;;;;;;5006585;28;20116;-73
2023/05/11 06:33:09;;;;;;;27.55;14.82;;;16.30;99.90;;;;;;5013635;28;20037;-71
2023/05/11 06:35:38;;;;;;;21.58;14.10;;;16.30;99.90;;;;;;5012445;28;20094;-73
2023/05/11 06:38:04;;;;;;;20.80;14.38;;;16.30;99.90;;;;;;5011841;28;20463;-75
2023/05/11 06:40:29;;;;;;;22.20;14.32;;;16.40;99.90;;;;;;5011315;28;20052;-75
2023/05/11 06:43:01;;;;;;;19.95;14.40;;;16.30;99.90;;;;;;5012455;28;20467;-73
2023/05/11 06:45:26;;;;;;;21.92;15.50;;;16.30;99.90;;;;;;5010868;28;20033;-73
2023/05/11 06:47:52;;;;;;;24.38;15.48;;;16.30;99.90;;;;;;5012542;28;20112;-72
2023/05/11 06:50:18;;;;;;;22.98;16.45;;;16.30;99.90;;;;;;5012462;28;20444;-73
2023/05/11 06:52:44;;;;;;;22.85;15.80;;;16.30;99.90;;;;;;5012112;28;20108;-73
2023/05/11 06:55:13;;;;;;;22.75;14.73;;;16.30;99.90;;;;;;5012278;28;20034;-74
2023/05/11 06:57:38;;;;;;;24.00;14.98;;;16.30;99.90;;;;;;5012265;28;20038;-74
2023/05/11 07:00:05;;;;;;;23.67;15.93;;;16.30;99.90;;;;;;5011422;28;20038;-75
2023/05/11 07:02:30;;;;;;;23.63;16.35;;;16.20;99.90;;;;;;5010916;28;20037;-73
2023/05/11 07:04:57;;;;;;;23.88;15.73;;;16.30;99.90;;;;;;5012411;28;20025;-73
2023/05/11 07:07:23;;;;;;;22.23;14.85;;;16.30;99.90;;;;;;5012050;28;20033;-76
2023/05/11 07:09:49;;;;;;;23.45;15.85;;;16.40;99.90;;;;;;5012272;28;20033;-72
2023/05/11 07:12:14;;;;;;;26.33;16.13;;;16.40;99.90;;;;;;5013671;28;20092;-74
2023/05/11 07:14:40;;;;;;;20.55;14.75;;;16.40;99.90;;;;;;5015628;28;20120;-72
2023/05/11 07:17:06;;;;;;;23.98;14.02;;;16.40;99.90;;;;;;5016373;28;20290;-74
2023/05/11 07:19:31;;;;;;;23.23;15.05;;;16.40;99.90;;;;;;5015972;28;20030;-76
2023/05/11 07:21:57;;;;;;;20.80;14.20;;;16.50;99.90;;;;;;5014838;28;20026;-74
2023/05/11 07:24:23;;;;;;;23.50;14.98;;;16.40;99.90;;;;;;5015826;28;20045;-72
2023/05/11 07:26:50;;;;;;;24.42;16.95;;;16.40;99.90;;;;;;5015866;28;20073;-73
2023/05/11 07:29:16;;;;;;;22.20;15.57;;;16.50;99.90;;;;;;5015870;28;20053;-72
2023/05/11 07:31:42;;;;;;;21.50;14.43;;;16.50;99.90;;;;;;5034863;28;20065;-71
2023/05/11 07:34:08;;;;;;;19.67;13.82;;;16.50;99.90;;;;;;5017868;28;20041;-73
2023/05/11 07:36:34;;;;;;;20.77;13.45;;;16.50;99.90;;;;;;5035279;28;20366;-73
2023/05/11 07:39:01;;;;;;;20.38;12.70;;;16.50;99.90;;;;;;5035381;28;20049;-75
2023/05/11 07:41:27;;;;;;;16.58;12.02;;;16.50;99.90;;;;;;5035563;28;20447;-72
2023/05/11 07:43:53;;;;;;;19.85;12.60;;;16.60;99.90;;;;;;5034956;28;20044;-73
2023/05/11 07:46:19;;;;;;;17.98;12.23;;;16.50;99.90;;;;;;5035162;28;20045;-72
2023/05/11 07:48:45;;;;;;;20.55;12.98;;;16.60;99.90;;;;;;5035206;28;20120;-73
2023/05/11 07:51:11;;;;;;;19.25;13.13;;;16.50;99.90;;;;;;5035090;28;20117;-73
2023/05/11 07:53:37;;;;;;;18.63;12.88;;;16.50;99.90;;;;;;5017469;28;20136;-72
2023/05/11 07:56:04;;;;;;;19.45;12.73;;;16.50;99.90;;;;;;5035437;28;20636;-73
2023/05/11 07:58:29;;;;;;;19.23;13.25;;;16.60;99.90;;;;;;5017192;28;20479;-74
2023/05/11 08:00:56;;;;;;;15.93;11.60;;;16.60;99.90;;;;;;5017125;28;20033;-73
2023/05/11 08:03:22;;;;;;;17.63;11.68;;;16.60;99.90;;;;;;5034754;28;20037;-74
2023/05/11 08:05:47;;;;;;;17.42;12.82;;;16.60;99.90;;;;;;5035322;28;20091;-73
2023/05/11 08:08:14;;;;;;;19.08;11.65;;;16.70;99.90;;;;;;5035456;28;20084;-73
2023/05/11 08:10:40;;;;;;;17.02;12.07;;;16.70;99.90;;;;;;5035530;28;20363;-73
2023/05/11 08:13:06;;;;;;;17.65;11.75;;;16.70;99.90;;;;;;5034557;28;20033;-75
2023/05/11 08:15:32;;;;;;;17.05;11.73;;;16.70;99.90;;;;;;5016999;28;20036;-76
2023/05/11 08:17:59;;;;;;;20.25;12.00;;;16.70;99.90;;;;;;5034748;28;20124;-74
2023/05/11 08:20:25;;;;;;;15.63;11.48;;;16.70;99.90;;;;;;5035095;28;20061;-76
2023/05/11 08:22:51;;;;;;;14.88;10.70;;;16.70;99.90;;;;;;5034532;28;20045;-75
2023/05/11 08:25:16;;;;;;;14.27;9.75;;;16.60;99.90;;;;;;5034410;28;20025;-72
2023/05/11 08:27:42;;;;;;;14.60;10.50;;;16.60;99.90;;;;;;5034402;28;20093;-72
2023/05/11 08:30:08;;;;;;;16.08;10.63;;;16.60;99.90;;;;;;5034381;28;20455;-75
2023/05/11 08:32:35;;;;;;;13.23;9.48;;;16.70;99.90;;;;;;5034430;28;20041;-72
2023/05/11 08:35:02;;;;;;;13.57;9.75;;;16.70;99.90;;;;;;5035053;28;20025;-72
2023/05/11 08:37:28;;;;;;;11.68;9.23;;;16.70;99.90;;;;;;5034214;28;20033;-74
2023/05/11 08:39:54;;;;;;;13.15;9.90;;;16.70;99.90;;;;;;5034003;28;20033;-72
2023/05/11 08:42:26;;;;;;;13.18;9.75;;;16.70;99.90;;;;;;5034113;28;20033;-76
2023/05/11 08:44:58;;;;;;;12.10;8.82;;;16.70;99.90;;;;;;5034466;28;20037;-73
2023/05/11 08:47:24;;;;;;;13.00;9.75;;;16.70;99.90;;;;;;5034703;28;20032;-72
2023/05/11 08:49:51;;;;;;;11.73;8.95;;;16.70;99.90;;;;;;5034555;28;20041;-73
2023/05/11 08:52:17;;;;;;;12.57;9.27;;;16.70;99.90;;;;;;5034179;28;20053;-72
2023/05/11 08:54:44;;;;;;;12.90;8.45;;;16.70;99.90;;;;;;5016498;28;20523;-76
2023/05/11 08:57:12;;;;;;;9.93;8.05;;;16.70;99.90;;;;;;5016551;28;20053;-73
2023/05/11 08:59:39;;;;;;;10.32;8.10;;;16.70;99.90;;;;;;5016508;28;20029;-75
2023/05/11 09:02:06;;;;;;;10.70;7.88;;;16.60;99.90;;;;;;5034449;28;20028;-73
2023/05/11 09:04:33;;;;;;;10.20;7.38;;;16.70;99.90;;;;;;5033975;28;20022;-73
2023/05/11 09:06:59;;;;;;;11.77;8.50;;;16.60;99.90;;;;;;5034125;28;20030;-74
2023/05/11 09:09:25;;;;;;;12.35;8.48;;;16.70;99.90;;;;;;5033514;28;20032;-72
2023/05/11 09:11:52;;;;;;;9.65;7.47;;;16.60;99.90;;;;;;5016199;28;20418;-73
2023/05/11 09:14:17;;;;;;;9.63;7.20;;;16.50;99.90;;;;;;5033648;28;20075;-73
2023/05/11 09:16:44;;;;;;;12.85;6.47;;;16.50;99.90;;;;;;5033719;28;20033;-72
2023/05/11 09:19:17;;;;;;;9.55;6.63;;;16.60;99.90;;;;;;5015903;28;20061;-74
2023/05/11 09:21:43;;;;;;;8.63;6.20;;;16.60;99.90;;;;;;5033198;28;20041;-73
2023/05/11 09:24:12;;;;;;;10.85;5.97;;;16.60;99.90;;;;;;5033306;28;20044;-74
2023/05/11 09:26:37;;;;;;;7.20;5.70;;;16.70;99.90;;;;;;5033452;28;20297;-72
2023/05/11 09:29:03;;;;;;;9.07;6.28;;;16.60;99.90;;;;;;5035092;28;20080;-72
2023/05/11 09:31:39;;;;;;;8.18;5.97;;;16.60;99.90;;;;;;5034175;28;20053;-73
2023/05/11 09:34:17;;;;;;;8.23;6.15;;;16.60;99.90;;;;;;5016574;28;20042;-73
2023/05/11 09:36:45;;;;;;;14.30;7.57;;;16.60;99.90;;;;;;5034523;28;20041;-73
2023/05/11 09:39:12;;;;;;;12.43;6.28;;;16.70;99.90;;;;;;5016995;28;20443;-73
2023/05/11 09:41:38;;;;;;;9.00;6.28;;;16.70;99.90;;;;;;5034379;28;20029;-74
2023/05/11 09:44:09;;;;;;;6.45;4.88;;;16.80;99.90;;;;;;5016977;28;20524;-74
2023/05/11 09:46:38;;;;;;;8.15;6.28;;;16.80;99.90;;;;;;5034288;28;20056;-74
2023/05/11 09:49:05;;;;;;;7.20;5.32;;;16.80;99.90;;;;;;5034805;28;20053;-75
2023/05/11 09:51:33;;;;;;;9.82;4.88;;;16.80;99.90;;;;;;5033143;28;20064;-75
2023/05/11 09:54:00;;;;;;;6.55;4.85;;;16.80;99.90;;;;;;5032902;28;20022;-74
2023/05/11 09:56:46;;;;;;;6.43;4.95;;;16.80;99.90;;;;;;5033336;28;20098;-74
2023/05/11 09:59:14;;;;;;;8.77;5.47;;;16.80;99.90;;;;;;5015255;28;20360;-74
2023/05/11 10:01:40;;;;;;;5.97;4.70;;;16.80;99.90;;;;;;5032602;28;20038;-73
2023/05/11 10:04:07;;;;;;;7.38;5.10;;;16.80;99.90;;;;;;5032446;28;20348;-73
2023/05/11 10:06:46;;;;;;;8.17;5.37;;;16.80;99.90;;;;;;5032552;28;20064;-77
2023/05/11 10:09:14;;;;;;;5.13;4.25;;;16.90;99.90;;;;;;5032636;28;20478;-71
2023/05/11 10:11:43;;;;;;;10.93;5.05;;;16.90;99.90;;;;;;5032142;28;20025;-75
2023/05/11 10:14:14;;;;;;;21.15;12.15;;;16.90;99.90;;;;;;5032803;28;20026;-73
2023/05/11 10:16:41;;;;;;;10.52;6.30;;;16.90;99.90;;;;;;5032246;28;20033;-74
2023/05/11 10:19:08;;;;;;;7.80;5.13;;;16.90;99.90;;;;;;5032194;28;20037;-73
2023/05/11 10:21:34;;;;;;;7.30;5.65;;;16.90;99.90;;;;;;5032270;28;20053;-76
2023/05/11 10:24:01;;;;;;;9.80;6.35;;;16.90;99.90;;;;;;5014736;28;20077;-75
2023/05/11 10:26:30;;;;;;;9.13;6.55;;;16.90;99.90;;;;;;5032729;28;20029;-75
2023/05/11 10:29:00;;;;;;;8.88;6.15;;;16.90;99.90;;;;;;5032247;28;20038;-75
2023/05/11 10:31:27;;;;;;;8.23;5.88;;;16.90;99.90;;;;;;5032013;28;20041;-76
2023/05/11 10:33:53;;;;;;;10.70;7.03;;;16.80;99.90;;;;;;5032069;28;20293;-75
2023/05/11 10:36:22;;;;;;;10.18;6.47;;;16.90;99.90;;;;;;5032107;28;20762;-75
2023/05/11 10:38:48;;;;;;;11.77;5.90;;;16.80;99.90;;;;;;5031762;28;20037;-74
2023/05/11 10:41:30;;;;;;;11.63;6.93;;;16.80;99.90;;;;;;5032061;28;20037;-73
2023/05/11 10:44:19;;;;;;;18.88;11.48;;;16.80;99.90;;;;;;5032233;28;20042;-74
2023/05/11 10:47:16;;;;;;;14.38;9.00;;;16.80;99.90;;;;;;5013397;28;20049;-75
2023/05/11 10:50:03;;;;;;;10.88;7.38;;;16.90;99.90;;;;;;5014377;28;20026;-76
2023/05/11 10:53:10;;;;;;;13.18;7.72;;;16.80;99.90;;;;;;5031890;28;20041;-74
2023/05/11 10:56:12;;;;;;;14.90;8.20;;;16.80;99.90;;;;;;5031988;28;20121;-74
2023/05/11 10:59:02;;;;;;;19.30;10.80;;;16.80;99.90;;;;;;5031857;28;20117;-76
2023/05/11 11:01:44;;;;;;;15.45;8.27;;;16.80;99.90;;;;;;5014050;28;20034;-75
2023/05/11 11:04:12;;;;;;;14.68;7.53;;;16.90;99.90;;;;;;5031568;28;20117;-73
2023/05/11 11:06:39;;;;;;;13.75;7.93;;;16.90;99.90;;;;;;5031564;28;20376;-73
2023/05/11 11:09:12;;;;;;;15.13;7.45;;;16.90;99.90;;;;;;5014084;28;20455;-74
2023/05/11 11:11:44;;;;;;;11.75;7.25;;;16.90;99.90;;;;;;5031090;28;20029;-74
2023/05/11 11:14:11;;;;;;;14.80;7.38;;;16.80;99.90;;;;;;5032007;28;20053;-76
2023/05/11 11:16:38;;;;;;;28.05;12.52;;;16.80;99.90;;;;;;5031550;28;20487;-72
2023/05/11 11:19:29;;;;;;;65.45;26.30;;;16.80;99.90;;;;;;5031458;28;20340;-75
2023/05/11 11:21:59;;;;;;;53.42;23.75;;;16.80;99.90;;;;;;5031675;28;20048;-78
2023/05/11 11:24:37;;;;;;;11.30;6.75;;;16.90;99.90;;;;;;5015173;28;20025;-76
2023/05/11 11:27:07;;;;;;;15.20;7.18;;;16.80;99.90;;;;;;5031102;28;20092;-73
2023/05/11 11:29:34;;;;;;;16.63;6.07;;;16.80;99.90;;;;;;5031118;28;20026;-74
2023/05/11 11:32:23;;;;;;;15.38;7.03;;;16.70;99.90;;;;;;5031887;28;20022;-70
2023/05/11 11:34:50;;;;;;;16.88;7.18;;;16.70;99.90;;;;;;5021237;28;20113;-74
2023/05/11 11:37:17;;;;;;;11.68;6.68;;;16.70;99.90;;;;;;5031139;28;20125;-75
2023/05/11 11:39:43;;;;;;;11.50;6.03;;;16.60;99.90;;;;;;5031454;28;20091;-72
2023/05/11 11:42:14;;;;;;;11.98;6.53;;;16.60;99.90;;;;;;5013589;28;20033;-74
2023/05/11 11:44:41;;;;;;;13.55;6.70;;;16.60;99.90;;;;;;5031532;28;20026;-73
2023/05/11 11:47:20;;;;;;;11.98;6.65;;;16.60;99.90;;;;;;5014540;28;20021;-74
2023/05/11 11:49:52;;;;;;;15.23;7.30;;;16.60;99.90;;;;;;5031258;28;20109;-77
2023/05/11 11:52:29;;;;;;;28.30;15.05;;;16.60;99.90;;;;;;5031296;28;20046;-73
2023/05/11 11:54:59;;;;;;;20.35;9.70;;;16.60;99.90;;;;;;5031340;28;20030;-76
2023/05/11 11:57:34;;;;;;;15.13;8.20;;;16.60;99.90;;;;;;5013716;28;20034;-76
2023/05/11 12:00:10;;;;;;;13.18;6.63;;;16.70;99.90;;;;;;5034947;28;20037;-76
2023/05/11 12:02:44;;;;;;;13.63;7.13;;;16.70;99.90;;;;;;5035111;28;20061;-75
2023/05/11 12:05:18;;;;;;;17.20;7.78;;;16.70;99.90;;;;;;5035567;28;20103;-72
2023/05/11 12:07:45;;;;;;;14.35;8.13;;;16.70;99.90;;;;;;5017255;28;20030;-75
2023/05/11 12:10:21;;;;;;;23.70;13.63;;;16.70;99.90;;;;;;5034328;28;20053;-73
2023/05/11 12:12:49;;;;;;;17.92;7.93;;;16.70;99.90;;;;;;5034726;28;20041;-74
2023/05/11 12:15:33;;;;;;;13.23;7.00;;;16.70;99.90;;;;;;5034604;28;20412;-73
2023/05/11 12:18:01;;;;;;;12.68;7.20;;;16.80;99.90;;;;;;5034660;28;20048;-73
2023/05/11 12:20:27;;;;;;;;;;;16.80;99.90;;;;;;5035481;28;20444;-72
2023/05/11 12:22:53;;;;;;;13.48;6.70;;;16.80;99.90;;;;;;5034615;28;19909;-72
2023/05/11 12:25:20;;;;;;;11.48;6.00;;;16.80;99.90;;;;;;5033972;28;20034;-72
2023/05/11 12:27:54;;;;;;;11.25;5.97;;;16.80;99.90;;;;;;5034519;28;20029;-76
2023/05/11 12:30:21;;;;;;;13.45;6.60;;;16.80;99.90;;;;;;5034093;28;20041;-75
2023/05/11 12:32:47;;;;;;;11.60;6.77;;;16.80;99.90;;;;;;5016767;28;20025;-75
2023/05/11 12:35:12;;;;;;;13.95;6.22;;;16.80;99.90;;;;;;5034837;28;20281;-76
2023/05/11 12:37:45;;;;;;;9.60;6.10;;;16.90;99.90;;;;;;5034342;28;20035;-76
2023/05/11 12:40:11;;;;;;;10.25;5.50;;;16.90;99.90;;;;;;5034049;28;20065;-76
2023/05/11 12:42:37;;;;;;;8.00;4.80;;;16.90;99.90;;;;;;5034518;28;20029;-75